Time;durP1;ratioP1;P1;durP2;ratioP2;P2;SDS_P1;SDS_P2;PMS_P1;PMS_P2;Temp;Humidity;BMP_temperature;BMP_pressure;BME280_temperature;BME280_humidity;BME280_pressure;Samples;Min_cycle;Max_cycle;Signal;HPM_P1;HPM_P2
2023/09/07 00:01:46;;;;;;;9.98;6.45;;;19.50;99.90;;;;;;5091923;28;20189;-46
2023/09/07 00:04:15;;;;;;;7.38;6.15;;;19.50;99.90;;;;;;5092327;28;20244;-46
2023/09/07 00:06:43;;;;;;;11.15;7.53;;;19.50;99.90;;;;;;5092380;28;20165;-45
2023/09/07 00:09:11;;;;;;;7.88;6.95;;;19.50;99.90;;;;;;5092283;28;20200;-46
2023/09/07 00:11:36;;;;;;;14.68;6.70;;;19.50;99.90;;;;;;5092602;28;20177;-45
2023/09/07 00:14:02;;;;;;;7.38;6.00;;;;;;;;;;5092366;28;20165;-45
2023/09/07 00:16:30;;;;;;;7.65;6.55;;;;;;;;;;5092308;28;20198;-45
2023/09/07 00:18:55;;;;;;;8.30;6.20;;;19.40;99.90;;;;;;5092632;28;20206;-45
2023/09/07 00:21:21;;;;;;;7.40;6.20;;;19.40;99.90;;;;;;5092326;28;20174;-45
2023/09/07 00:23:47;;;;;;;6.78;6.07;;;19.30;99.90;;;;;;5092071;28;20217;-46
2023/09/07 00:26:12;;;;;;;10.18;6.85;;;19.20;99.90;;;;;;5092088;28;20176;-45
2023/09/07 00:28:38;;;;;;;8.93;6.53;;;19.20;99.90;;;;;;5092053;28;20176;-45
2023/09/07 00:31:04;;;;;;;8.00;6.22;;;19.10;99.90;;;;;;5092310;28;20279;-45
2023/09/07 00:33:29;;;;;;;8.70;6.50;;;19.00;99.90;;;;;;5091915;28;20555;-47
2023/09/07 00:35:55;;;;;;;7.30;6.35;;;19.00;99.90;;;;;;5092365;28;20512;-45
2023/09/07 00:38:20;;;;;;;10.25;6.22;;;19.00;99.90;;;;;;5090575;28;20180;-44
2023/09/07 00:40:46;;;;;;;8.68;6.78;;;19.10;99.90;;;;;;5091661;28;20180;-46
2023/09/07 00:43:12;;;;;;;9.77;6.20;;;19.00;99.90;;;;;;5091017;28;20209;-45
2023/09/07 00:45:38;;;;;;;8.18;6.93;;;19.00;99.90;;;;;;5091661;28;20710;-45
2023/09/07 00:48:05;;;;;;;9.45;6.18;;;19.00;99.90;;;;;;5091767;28;20253;-45
2023/09/07 00:50:30;;;;;;;10.82;6.15;;;19.00;99.90;;;;;;5090476;28;20176;-45
2023/09/07 00:52:57;;;;;;;8.35;5.85;;;19.00;99.90;;;;;;5092058;28;20166;-45
2023/09/07 00:55:23;;;;;;;8.45;6.22;;;19.10;99.90;;;;;;5091772;28;20172;-45
2023/09/07 00:57:49;;;;;;;6.70;5.70;;;19.10;99.90;;;;;;5091590;28;20170;-45
2023/09/07 01:00:15;;;;;;;6.35;5.15;;;19.10;99.90;;;;;;5091581;28;20165;-45
2023/09/07 01:02:42;;;;;;;6.03;5.32;;;19.20;99.90;;;;;;5091753;28;20536;-46
2023/09/07 01:05:07;;;;;;;6.57;5.88;;;19.20;99.90;;;;;;5091801;28;20165;-45
2023/09/07 01:07:40;;;;;;;6.78;5.47;;;19.30;99.90;;;;;;5091503;28;20210;-45
2023/09/07 01:10:07;;;;;;;6.80;5.47;;;19.30;99.90;;;;;;5091744;28;20219;-45
2023/09/07 01:12:33;;;;;;;9.75;5.68;;;19.30;99.90;;;;;;5091426;28;20161;-45
2023/09/07 01:14:58;;;;;;;8.05;6.25;;;19.30;99.90;;;;;;5091424;28;20166;-45
2023/09/07 01:17:24;;;;;;;11.60;6.05;;;19.40;99.90;;;;;;5091800;28;20202;-46
2023/09/07 01:19:52;;;;;;;8.55;6.43;;;19.30;99.90;;;;;;5091445;28;20167;-46
2023/09/07 01:22:24;;;;;;;9.00;6.30;;;19.30;99.90;;;;;;5091459;28;20583;-45
2023/09/07 01:24:52;;;;;;;10.80;6.57;;;19.30;99.90;;;;;;5091358;28;20234;-45
2023/09/07 01:27:18;;;;;;;10.13;6.10;;;19.30;99.90;;;;;;5091246;28;20165;-44
2023/09/07 01:29:44;;;;;;;7.57;6.47;;;19.30;99.90;;;;;;5091475;28;20169;-45
2023/09/07 01:32:10;;;;;;;7.25;6.15;;;19.30;99.90;;;;;;5091231;28;20184;-46
2023/09/07 01:34:36;;;;;;;10.80;6.57;;;19.30;99.90;;;;;;5091199;28;20718;-45
2023/09/07 01:37:01;;;;;;;7.53;6.32;;;19.30;99.90;;;;;;5091264;28;20207;-46
2023/09/07 01:39:27;;;;;;;11.88;6.43;;;;;;;;;;5091617;28;20169;-45
2023/09/07 01:41:53;;;;;;;5.95;5.35;;;19.30;99.90;;;;;;5091662;28;20208;-45
2023/09/07 01:44:19;;;;;;;9.82;5.75;;;19.30;99.90;;;;;;5091054;28;20259;-45
2023/09/07 01:46:44;;;;;;;12.20;5.70;;;19.30;99.90;;;;;;5091321;28;20182;-47
2023/09/07 01:49:10;;;;;;;7.78;6.20;;;19.30;99.90;;;;;;5091093;28;20166;-45
2023/09/07 01:51:36;;;;;;;7.55;5.60;;;19.30;99.90;;;;;;5091138;28;20236;-46
2023/09/07 01:54:02;;;;;;;10.52;6.13;;;19.30;99.90;;;;;;5093801;28;20191;-45
2023/09/07 01:56:28;;;;;;;9.57;5.53;;;;;;;;;;5095528;28;20630;-45
2023/09/07 01:58:53;;;;;;;10.50;5.43;;;19.30;99.90;;;;;;5095306;28;20174;-48
2023/09/07 02:01:30;;;;;;;8.05;6.00;;;19.30;99.90;;;;;;5094798;28;20172;-47
2023/09/07 02:03:56;;;;;;;8.00;5.90;;;19.30;99.90;;;;;;5095233;28;20214;-48
2023/09/07 02:06:22;;;;;;;7.82;5.25;;;19.30;99.90;;;;;;5094737;28;20236;-46
2023/09/07 02:08:48;;;;;;;7.40;5.20;;;19.20;99.90;;;;;;5094755;28;20250;-45
2023/09/07 02:11:14;;;;;;;6.15;5.22;;;19.20;99.90;;;;;;5094913;28;20169;-46
2023/09/07 02:13:43;;;;;;;7.82;5.63;;;19.20;99.90;;;;;;5094640;28;20215;-49
2023/09/07 02:16:08;;;;;;;6.45;5.38;;;19.20;99.90;;;;;;5094615;28;20165;-45
2023/09/07 02:18:35;;;;;;;7.20;5.78;;;19.10;99.90;;;;;;5094573;28;20181;-46
2023/09/07 02:21:04;;;;;;;7.75;5.63;;;19.10;99.90;;;;;;5094971;28;20177;-45
2023/09/07 02:23:31;;;;;;;8.65;5.40;;;19.10;99.90;;;;;;5094593;28;20201;-49
2023/09/07 02:25:57;;;;;;;8.60;5.40;;;19.10;99.90;;;;;;5095084;28;20269;-45
2023/09/07 02:28:23;;;;;;;7.90;5.30;;;19.10;99.90;;;;;;5094398;28;20638;-45
2023/09/07 02:30:49;;;;;;;6.40;5.65;;;19.00;99.90;;;;;;5094525;28;20178;-45
2023/09/07 02:33:14;;;;;;;8.50;5.38;;;19.00;99.90;;;;;;5094230;28;20683;-47
2023/09/07 02:35:40;;;;;;;6.40;5.25;;;19.00;99.90;;;;;;5094173;28;20165;-46
2023/09/07 02:38:06;;;;;;;7.15;5.88;;;19.00;99.90;;;;;;5094214;28;20161;-47
2023/09/07 02:40:31;;;;;;;7.25;5.40;;;19.00;99.90;;;;;;5094359;28;20622;-45
2023/09/07 02:42:57;;;;;;;7.47;5.65;;;18.90;99.90;;;;;;5094403;28;20209;-46
2023/09/07 02:45:22;;;;;;;6.53;4.97;;;18.90;99.90;;;;;;5093923;28;20205;-46
2023/09/07 02:47:50;;;;;;;10.18;5.65;;;18.90;99.90;;;;;;5093990;28;20252;-45
2023/09/07 02:50:17;;;;;;;7.55;5.28;;;;;;;;;;5094249;28;20197;-46
2023/09/07 02:52:43;;;;;;;9.90;5.10;;;18.80;99.90;;;;;;5093908;28;20239;-44
2023/09/07 02:55:09;;;;;;;8.43;5.03;;;18.80;99.90;;;;;;5092606;28;20640;-46
2023/09/07 02:57:35;;;;;;;8.27;5.10;;;18.80;99.90;;;;;;5093793;28;20252;-46
2023/09/07 03:00:01;;;;;;;9.20;5.40;;;18.80;99.90;;;;;;5093706;28;20172;-46
2023/09/07 03:02:27;;;;;;;7.10;4.80;;;18.80;99.90;;;;;;5094072;28;20246;-45
2023/09/07 03:04:54;;;;;;;6.65;4.72;;;18.70;99.90;;;;;;5093005;28;20529;-45
2023/09/07 03:07:20;;;;;;;10.50;5.03;;;18.70;99.90;;;;;;5093555;28;20634;-45
2023/09/07 03:09:45;;;;;;;7.50;5.00;;;18.70;99.90;;;;;;5093551;28;20165;-45
2023/09/07 03:12:11;;;;;;;9.32;5.18;;;;;;;;;;5093780;28;20165;-45
2023/09/07 03:14:37;;;;;;;9.05;5.05;;;18.70;99.90;;;;;;5093450;28;20188;-45
2023/09/07 03:17:03;;;;;;;6.07;5.05;;;18.70;99.90;;;;;;5093475;28;20165;-44
2023/09/07 03:19:29;;;;;;;5.93;4.75;;;18.70;99.90;;;;;;5093644;28;20245;-45
2023/09/07 03:21:55;;;;;;;9.35;4.90;;;18.70;99.90;;;;;;5093624;28;20733;-45
2023/09/07 03:24:20;;;;;;;8.07;5.00;;;18.70;99.90;;;;;;5093320;28;20154;-45
2023/09/07 03:26:46;;;;;;;7.00;4.57;;;18.60;99.90;;;;;;5093224;28;20246;-45
2023/09/07 03:29:11;;;;;;;7.15;5.15;;;18.60;99.90;;;;;;5093179;28;20650;-45
2023/09/07 03:31:37;;;;;;;10.55;4.88;;;18.60;99.90;;;;;;5093147;28;20180;-45
2023/09/07 03:34:02;;;;;;;6.90;4.13;;;18.50;99.90;;;;;;5093148;28;20165;-45
2023/09/07 03:36:28;;;;;;;6.97;4.72;;;18.40;99.90;;;;;;5093017;28;20193;-45
2023/09/07 03:38:53;;;;;;;5.47;4.70;;;18.50;99.90;;;;;;5093529;28;20161;-45
2023/09/07 03:41:19;;;;;;;6.25;4.30;;;18.50;99.90;;;;;;5092869;28;20165;-45
2023/09/07 03:43:45;;;;;;;8.77;4.72;;;18.50;99.90;;;;;;5092331;28;20212;-45
2023/09/07 03:46:11;;;;;;;9.70;4.93;;;;;;;;;;5092787;28;20525;-45
2023/09/07 03:48:36;;;;;;;6.95;5.15;;;18.40;99.90;;;;;;5092890;28;20170;-45
2023/09/07 03:51:06;;;;;;;8.40;5.18;;;18.30;99.90;;;;;;5092713;28;20211;-45
2023/09/07 03:53:32;;;;;;;5.75;4.60;;;18.30;99.90;;;;;;5092804;28;20169;-45
2023/09/07 03:55:58;;;;;;;9.98;4.53;;;;;;;;;;5092697;28;20180;-45
2023/09/07 03:58:23;;;;;;;11.20;5.20;;;;;;;;;;5092963;28;20252;-45
2023/09/07 04:00:49;;;;;;;10.20;5.28;;;18.30;99.90;;;;;;5092565;28;20168;-45
2023/09/07 04:03:15;;;;;;;6.93;5.53;;;18.20;99.90;;;;;;5092471;28;20209;-45
2023/09/07 04:05:40;;;;;;;6.72;5.25;;;18.20;99.90;;;;;;5092472;28;20166;-45
2023/09/07 04:08:07;;;;;;;6.93;5.43;;;18.20;99.90;;;;;;5092500;28;20174;-44
2023/09/07 04:10:33;;;;;;;6.05;4.63;;;18.10;99.90;;;;;;5092510;28;20169;-46
2023/09/07 04:12:58;;;;;;;7.50;4.82;;;18.10;99.90;;;;;;5092266;28;20251;-44
2023/09/07 04:15:25;;;;;;;6.00;4.78;;;18.20;99.90;;;;;;5092911;28;20198;-45
2023/09/07 04:17:51;;;;;;;6.13;4.43;;;18.20;99.90;;;;;;5092210;28;20158;-46
2023/09/07 04:20:17;;;;;;;6.35;4.50;;;18.20;99.90;;;;;;5092095;28;20180;-45
2023/09/07 04:22:42;;;;;;;6.85;4.68;;;18.10;99.90;;;;;;5092379;28;20248;-45
2023/09/07 04:25:08;;;;;;;5.53;4.65;;;18.10;99.90;;;;;;5092158;28;20172;-46
2023/09/07 04:27:34;;;;;;;11.48;4.97;;;18.10;99.90;;;;;;5092112;28;20169;-44
2023/09/07 04:29:59;;;;;;;7.20;4.95;;;18.10;99.90;;;;;;5092256;28;20264;-44
2023/09/07 04:32:25;;;;;;;6.60;5.18;;;18.10;99.90;;;;;;5092497;28;20165;-45
2023/09/07 04:34:55;;;;;;;9.15;5.15;;;18.10;99.90;;;;;;5092015;28;20176;-45
2023/09/07 04:37:22;;;;;;;6.78;4.90;;;18.10;99.90;;;;;;5092153;28;20173;-45
2023/09/07 04:39:52;;;;;;;6.78;5.22;;;18.10;99.90;;;;;;5092158;28;20169;-45
2023/09/07 04:42:17;;;;;;;6.68;5.03;;;18.10;99.90;;;;;;5091990;28;20197;-45
2023/09/07 04:44:43;;;;;;;10.77;5.50;;;18.10;99.90;;;;;;5091653;28;20217;-45
2023/09/07 04:47:08;;;;;;;7.20;5.35;;;18.10;99.90;;;;;;5091856;28;20182;-45
2023/09/07 04:49:34;;;;;;;6.10;4.70;;;18.10;99.90;;;;;;5092035;28;20168;-45
2023/09/07 04:51:59;;;;;;;6.20;5.07;;;18.10;99.90;;;;;;5091802;28;20536;-45
2023/09/07 04:54:25;;;;;;;7.95;5.70;;;18.10;99.90;;;;;;5092060;28;20257;-45
2023/09/07 04:56:51;;;;;;;7.85;4.90;;;18.10;99.90;;;;;;5091593;28;20176;-45
2023/09/07 04:59:17;;;;;;;5.75;4.72;;;18.00;99.90;;;;;;5091925;28;20165;-45
2023/09/07 05:01:42;;;;;;;10.23;5.25;;;18.10;99.90;;;;;;5091251;28;20185;-45
2023/09/07 05:04:08;;;;;;;11.40;5.78;;;18.10;99.90;;;;;;5091481;28;20240;-45
2023/09/07 05:06:36;;;;;;;7.95;4.72;;;18.10;99.90;;;;;;5091586;28;20161;-45
2023/09/07 05:09:03;;;;;;;8.68;4.38;;;18.10;99.90;;;;;;5091782;28;20173;-44
2023/09/07 05:11:28;;;;;;;6.72;5.38;;;18.10;99.90;;;;;;5091465;28;20522;-47
2023/09/07 05:13:54;;;;;;;7.80;6.03;;;18.00;99.90;;;;;;5091830;28;20162;-45
2023/09/07 05:16:19;;;;;;;7.22;5.15;;;18.00;99.90;;;;;;5091498;28;20180;-45
2023/09/07 05:18:45;;;;;;;8.20;4.82;;;18.00;99.90;;;;;;5091738;28;20218;-45
2023/09/07 05:21:15;;;;;;;8.27;5.25;;;18.00;99.90;;;;;;5091598;28;20256;-45
2023/09/07 05:23:41;;;;;;;12.52;5.05;;;18.00;99.90;;;;;;5091255;28;20280;-45
2023/09/07 05:26:07;;;;;;;7.57;5.80;;;18.10;99.90;;;;;;5091639;28;20165;-47
2023/09/07 05:28:32;;;;;;;6.20;4.65;;;18.10;99.90;;;;;;5092964;28;20165;-46
2023/09/07 05:30:58;;;;;;;7.15;4.85;;;18.10;99.90;;;;;;5095565;28;20169;-45
2023/09/07 05:33:24;;;;;;;9.95;5.10;;;;;;;;;;5095953;28;20176;-45
2023/09/07 05:35:49;;;;;;;6.88;5.65;;;18.10;99.90;;;;;;5095587;28;20168;-45
2023/09/07 05:38:15;;;;;;;6.53;4.90;;;18.10;99.90;;;;;;5095300;28;20166;-45
2023/09/07 05:40:42;;;;;;;5.63;5.07;;;18.20;99.90;;;;;;5095279;28;20170;-45
2023/09/07 05:43:08;;;;;;;6.82;5.20;;;;;;;;;;5095221;28;20757;-45
2023/09/07 05:45:38;;;;;;;7.10;5.18;;;18.30;99.90;;;;;;5095078;28;20223;-46
2023/09/07 05:48:05;;;;;;;7.03;5.03;;;18.30;99.90;;;;;;5095238;28;20704;-45
2023/09/07 05:50:35;;;;;;;9.65;5.60;;;18.30;99.90;;;;;;5095046;28;20169;-47
2023/09/07 05:53:02;;;;;;;7.55;5.30;;;18.40;99.90;;;;;;5095131;28;20176;-48
2023/09/07 05:55:28;;;;;;;7.72;5.40;;;18.50;99.90;;;;;;5095014;28;20165;-46
2023/09/07 05:57:57;;;;;;;9.23;4.90;;;18.50;99.90;;;;;;5095381;28;20181;-49
2023/09/07 06:00:23;;;;;;;6.68;5.10;;;18.60;99.90;;;;;;5095393;28;20200;-45
2023/09/07 06:02:49;;;;;;;5.88;5.07;;;18.70;99.90;;;;;;5094640;28;20208;-45
2023/09/07 06:05:16;;;;;;;8.13;5.28;;;18.70;99.90;;;;;;5093829;28;20634;-45
2023/09/07 06:07:41;;;;;;;9.30;4.90;;;18.80;99.90;;;;;;5094751;28;20565;-45
2023/09/07 06:10:07;;;;;;;6.43;5.03;;;18.80;99.90;;;;;;5094882;28;20172;-45
2023/09/07 06:12:33;;;;;;;10.27;4.95;;;18.80;99.90;;;;;;5094702;28;20161;-46
2023/09/07 06:15:00;;;;;;;6.65;5.22;;;18.90;99.90;;;;;;5094251;28;20165;-44
2023/09/07 06:17:27;;;;;;;6.95;5.18;;;18.90;99.90;;;;;;5095107;28;20177;-45
2023/09/07 06:19:54;;;;;;;10.00;4.97;;;19.00;99.90;;;;;;5094903;28;20656;-44
2023/09/07 06:22:19;;;;;;;7.13;5.25;;;19.10;99.90;;;;;;5094341;28;20205;-44
2023/09/07 06:24:45;;;;;;;8.88;5.40;;;;;;;;;;5094403;28;20540;-45
2023/09/07 06:27:11;;;;;;;7.43;4.93;;;19.20;99.90;;;;;;5093880;28;20506;-45
2023/09/07 06:29:36;;;;;;;5.78;4.50;;;19.30;99.90;;;;;;5094343;28;20532;-45
2023/09/07 06:32:02;;;;;;;7.57;4.93;;;19.40;99.90;;;;;;5094373;28;20627;-45
2023/09/07 06:34:27;;;;;;;6.97;4.95;;;19.40;99.90;;;;;;5094459;28;20641;-44
2023/09/07 06:36:53;;;;;;;9.93;4.57;;;19.50;99.90;;;;;;5094417;28;20573;-46
2023/09/07 06:39:18;;;;;;;6.13;4.22;;;19.60;99.90;;;;;;5094207;28;20588;-49
2023/09/07 06:41:46;;;;;;;7.10;4.32;;;19.70;99.90;;;;;;5094124;28;20161;-46
2023/09/07 06:44:11;;;;;;;8.77;4.28;;;19.90;99.90;;;;;;5093834;28;20217;-44
2023/09/07 06:46:37;;;;;;;9.60;4.75;;;19.90;99.90;;;;;;5093930;28;20598;-44
2023/09/07 06:49:03;;;;;;;5.13;4.07;;;20.00;99.90;;;;;;5094007;28;20178;-44
2023/09/07 06:51:30;;;;;;;11.77;5.03;;;20.10;99.90;;;;;;5093896;28;20713;-45
2023/09/07 06:53:55;;;;;;;8.65;3.95;;;20.20;99.90;;;;;;5094340;28;20254;-46
2023/09/07 06:56:21;;;;;;;9.13;4.40;;;20.30;99.90;;;;;;5093454;28;20197;-45
2023/09/07 06:58:47;;;;;;;5.50;4.03;;;;;;;;;;5093624;28;20197;-47
2023/09/07 07:01:12;;;;;;;7.47;4.40;;;20.50;99.90;;;;;;5093590;28;20219;-44
2023/09/07 07:03:38;;;;;;;5.13;4.55;;;;;;;;;;5093292;28;20201;-44
2023/09/07 07:06:04;;;;;;;6.25;4.75;;;20.70;99.90;;;;;;5093360;28;20162;-48
2023/09/07 07:08:29;;;;;;;7.03;4.63;;;20.70;99.90;;;;;;5093433;28;20503;-45
2023/09/07 07:10:55;;;;;;;8.60;4.50;;;20.80;99.90;;;;;;5094002;28;20165;-45
2023/09/07 07:13:20;;;;;;;5.47;4.50;;;20.80;99.90;;;;;;5091814;28;20177;-45
2023/09/07 07:15:46;;;;;;;9.80;4.18;;;20.90;99.90;;;;;;5093093;28;20173;-46
2023/09/07 07:18:11;;;;;;;5.38;3.92;;;21.00;99.90;;;;;;5093352;28;20169;-46
2023/09/07 07:20:42;;;;;;;7.40;4.68;;;21.10;99.90;;;;;;5091819;28;20170;-44
2023/09/07 07:23:07;;;;;;;6.13;4.40;;;21.10;99.90;;;;;;5092990;28;20206;-44
2023/09/07 07:25:33;;;;;;;10.93;4.45;;;21.20;99.90;;;;;;5093014;28;20170;-44
2023/09/07 07:28:05;;;;;;;6.55;4.50;;;21.30;99.90;;;;;;5093079;28;20161;-44
2023/09/07 07:30:40;;;;;;;8.25;4.03;;;21.40;99.90;;;;;;5092993;28;20222;-44
2023/09/07 07:33:06;;;;;;;11.65;4.72;;;21.50;99.90;;;;;;5092974;28;20172;-43
2023/09/07 07:35:35;;;;;;;8.63;5.10;;;21.60;99.90;;;;;;5092907;28;20661;-43
2023/09/07 07:38:03;;;;;;;9.32;4.40;;;21.70;99.90;;;;;;5092776;28;20176;-44
2023/09/07 07:40:29;;;;;;;7.70;4.18;;;21.90;99.90;;;;;;5093061;28;20251;-44
2023/09/07 07:42:55;;;;;;;4.60;4.03;;;22.00;99.90;;;;;;5093107;28;20219;-44
2023/09/07 07:45:21;;;;;;;10.73;4.85;;;22.00;99.90;;;;;;5092692;28;20217;-44
2023/09/07 07:47:50;;;;;;;11.38;4.50;;;22.20;99.90;;;;;;5093050;28;20173;-48
2023/09/07 07:50:16;;;;;;;8.00;4.03;;;22.30;99.90;;;;;;5092706;28;20208;-44
2023/09/07 07:52:42;;;;;;;6.20;4.03;;;22.30;99.90;;;;;;5092541;28;20190;-46
2023/09/07 07:55:09;;;;;;;16.58;5.13;;;22.50;99.90;;;;;;5092482;28;20234;-47
2023/09/07 07:57:34;;;;;;;8.70;4.53;;;22.30;99.90;;;;;;5092601;28;20664;-49
2023/09/07 08:00:00;;;;;;;8.38;4.18;;;22.60;99.90;;;;;;5092453;28;20170;-50
2023/09/07 08:02:25;;;;;;;6.50;4.32;;;22.60;99.90;;;;;;5092918;28;20245;-47
2023/09/07 08:04:51;;;;;;;5.15;4.22;;;22.70;99.90;;;;;;5092344;28;20161;-47
2023/09/07 08:07:17;;;;;;;8.98;4.32;;;22.90;99.90;;;;;;5092246;28;20170;-46
2023/09/07 08:09:42;;;;;;;6.50;4.13;;;23.00;99.90;;;;;;5092256;28;20169;-48
2023/09/07 08:12:08;;;;;;;5.22;3.63;;;23.00;99.90;;;;;;5092222;28;20169;-47
2023/09/07 08:14:34;;;;;;;4.88;3.67;;;23.00;99.90;;;;;;5092293;28;20192;-50
2023/09/07 08:17:01;;;;;;;6.00;4.10;;;23.20;99.90;;;;;;5092257;28;20666;-47
2023/09/07 08:19:30;;;;;;;10.18;4.53;;;;;;;;;;5092428;28;20314;-47
2023/09/07 08:21:57;;;;;;;6.85;4.47;;;23.50;99.90;;;;;;5092760;28;20278;-48
2023/09/07 08:24:23;;;;;;;11.30;3.72;;;23.60;99.90;;;;;;5092519;28;20201;-44
2023/09/07 08:26:51;;;;;;;5.78;4.15;;;23.60;99.90;;;;;;5092235;28;20219;-44
2023/09/07 08:29:20;;;;;;;4.72;3.95;;;23.80;99.90;;;;;;5092379;28;20206;-44
2023/09/07 08:31:47;;;;;;;6.38;4.07;;;23.80;99.90;;;;;;5092254;28;20170;-44
2023/09/07 08:34:14;;;;;;;8.43;4.78;;;24.10;99.90;;;;;;5092043;28;20187;-44
2023/09/07 08:36:40;;;;;;;7.03;4.18;;;24.00;99.90;;;;;;5092283;28;20170;-44
2023/09/07 08:39:09;;;;;;;6.72;4.18;;;24.10;99.90;;;;;;5092010;28;20536;-44
2023/09/07 08:41:41;;;;;;;4.20;3.70;;;24.10;99.90;;;;;;5091859;28;20169;-44
2023/09/07 08:44:09;;;;;;;5.35;3.85;;;24.10;99.90;;;;;;5091924;28;20583;-44
2023/09/07 08:46:35;;;;;;;5.78;4.45;;;24.10;99.90;;;;;;5091848;28;20516;-44
2023/09/07 08:49:01;;;;;;;7.47;4.03;;;24.10;99.90;;;;;;5091831;28;20169;-44
2023/09/07 08:51:31;;;;;;;3.85;3.45;;;24.20;99.90;;;;;;5090521;28;20579;-45
2023/09/07 08:53:57;;;;;;;8.15;3.50;;;24.30;99.90;;;;;;5091975;28;20173;-44
2023/09/07 08:56:24;;;;;;;6.80;3.97;;;24.20;99.90;;;;;;5092017;28;20169;-44
2023/09/07 08:58:49;;;;;;;11.52;4.10;;;24.30;99.90;;;;;;5091825;28;20165;-45
2023/09/07 09:01:16;;;;;;;5.63;3.92;;;24.50;99.90;;;;;;5091584;28;20245;-44
2023/09/07 09:03:43;;;;;;;5.78;3.80;;;24.50;99.90;;;;;;5090652;28;20200;-50
2023/09/07 09:06:09;;;;;;;6.05;3.58;;;24.60;99.90;;;;;;5091608;28;20159;-44
2023/09/07 09:08:54;;;;;;;3.80;3.50;;;24.80;99.90;;;;;;5091553;28;20165;-44
2023/09/07 09:11:21;;;;;;;6.22;4.03;;;24.80;99.90;;;;;;5091461;28;20161;-44
2023/09/07 09:13:48;;;;;;;5.13;3.85;;;25.00;99.90;;;;;;5091449;28;20195;-44
2023/09/07 09:16:14;;;;;;;7.20;4.10;;;25.20;99.90;;;;;;5091580;28;20157;-44
2023/09/07 09:18:52;;;;;;;4.13;3.72;;;25.10;99.90;;;;;;5091341;28;20637;-45
2023/09/07 09:21:22;;;;;;;10.27;4.35;;;25.00;99.90;;;;;;5091404;28;20167;-44
2023/09/07 09:23:50;;;;;;;8.68;3.75;;;25.30;99.90;;;;;;5091513;28;20243;-45
2023/09/07 09:26:16;;;;;;;5.18;3.78;;;25.40;99.90;;;;;;5091427;28;20675;-49
2023/09/07 09:28:44;;;;;;;6.80;4.13;;;25.40;99.90;;;;;;5091462;28;20251;-47
2023/09/07 09:31:12;;;;;;;5.65;3.97;;;25.50;99.90;;;;;;5091562;28;20168;-48
2023/09/07 09:33:38;;;;;;;6.93;3.90;;;25.60;99.90;;;;;;5091605;28;20169;-45
2023/09/07 09:36:05;;;;;;;7.18;4.07;;;25.60;99.90;;;;;;5091259;28;20575;-48
2023/09/07 09:38:32;;;;;;;7.88;3.63;;;25.70;99.90;;;;;;5091260;28;20210;-45
2023/09/07 09:40:58;;;;;;;5.85;3.85;;;25.70;99.90;;;;;;5091361;28;20215;-44
2023/09/07 09:43:25;;;;;;;6.43;4.05;;;25.60;99.90;;;;;;5091503;28;20265;-44
2023/09/07 09:45:52;;;;;;;7.22;4.38;;;25.70;99.90;;;;;;5090603;28;20217;-44
2023/09/07 09:48:21;;;;;;;5.88;4.07;;;26.00;99.90;;;;;;5090954;28;20255;-44
2023/09/07 09:50:48;;;;;;;6.25;4.00;;;26.00;99.90;;;;;;5091091;28;20630;-43
2023/09/07 09:53:20;;;;;;;4.78;3.50;;;26.20;99.90;;;;;;5091276;28;20177;-45
2023/09/07 09:55:46;;;;;;;9.48;4.38;;;26.30;99.90;;;;;;5091104;28;20506;-44
2023/09/07 09:58:13;;;;;;;6.85;4.05;;;26.40;99.90;;;;;;5091068;28;20529;-44
2023/09/07 10:00:44;;;;;;;6.40;3.70;;;26.50;99.90;;;;;;5091114;28;20230;-44
2023/09/07 10:03:32;;;;;;;10.35;4.35;;;26.50;99.90;;;;;;5090877;28;20257;-45
2023/09/07 10:06:28;;;;;;;7.93;4.07;;;26.50;99.90;;;;;;5091052;28;20169;-43
2023/09/07 10:09:04;;;;;;;7.40;4.45;;;26.70;99.90;;;;;;5091009;28;20226;-44
2023/09/07 10:11:35;;;;;;;5.72;3.88;;;26.80;99.90;;;;;;5090825;28;20655;-44
2023/09/07 10:14:05;;;;;;;5.45;4.05;;;26.90;99.90;;;;;;5091713;28;20539;-43
2023/09/07 10:16:52;;;;;;;5.47;4.13;;;26.90;99.90;;;;;;5094602;28;20645;-44
2023/09/07 10:19:20;;;;;;;7.88;4.72;;;26.90;99.90;;;;;;5094808;28;20169;-46
2023/09/07 10:21:46;;;;;;;9.32;4.38;;;27.00;99.90;;;;;;5094659;28;20168;-44
2023/09/07 10:24:22;;;;;;;4.63;3.65;;;27.10;99.90;;;;;;5094405;28;20196;-44
2023/09/07 10:26:58;;;;;;;5.60;3.95;;;27.20;99.90;;;;;;5094374;28;20222;-44
2023/09/07 10:29:25;;;;;;;5.68;3.80;;;27.20;99.90;;;;;;5094739;28;20161;-43
2023/09/07 10:31:51;;;;;;;6.20;4.22;;;27.20;99.90;;;;;;5094906;28;20205;-44
2023/09/07 10:34:17;;;;;;;7.05;4.00;;;27.40;99.90;;;;;;5094481;28;20173;-44
2023/09/07 10:36:43;;;;;;;6.97;3.70;;;27.50;99.90;;;;;;5094156;28;20249;-44
2023/09/07 10:39:09;;;;;;;4.05;3.75;;;27.40;99.90;;;;;;5094183;28;20165;-44
2023/09/07 10:41:45;;;;;;;6.55;4.10;;;27.50;99.90;;;;;;5094019;28;20161;-44
2023/09/07 10:44:11;;;;;;;4.43;4.03;;;27.70;99.90;;;;;;5093917;28;20227;-44
2023/09/07 10:46:38;;;;;;;8.20;4.13;;;27.80;99.90;;;;;;5094069;28;20230;-44
2023/09/07 10:49:09;;;;;;;5.95;3.78;;;27.80;99.90;;;;;;5094046;28;20299;-48
2023/09/07 10:51:41;;;;;;;4.20;3.80;;;27.80;99.90;;;;;;5093985;28;20185;-44
2023/09/07 10:54:17;;;;;;;5.00;3.90;;;28.00;99.90;;;;;;5093983;28;20153;-44
2023/09/07 10:56:46;;;;;;;8.32;3.85;;;28.10;99.90;;;;;;5093753;28;20260;-44
2023/09/07 10:59:15;;;;;;;6.47;3.78;;;28.10;99.90;;;;;;5093839;28;20691;-44
2023/09/07 11:01:43;;;;;;;13.68;4.88;;;28.30;99.90;;;;;;5093727;28;20573;-44
2023/09/07 11:04:11;;;;;;;8.13;4.10;;;28.40;99.90;;;;;;5093303;28;20211;-44
2023/09/07 11:06:37;;;;;;;11.32;4.65;;;28.40;99.90;;;;;;5093685;28;20211;-45
2023/09/07 11:09:04;;;;;;;9.40;3.88;;;;;;;;;;5093425;28;20161;-47
2023/09/07 11:11:33;;;;;;;4.75;3.90;;;28.50;99.90;;;;;;5093803;28;20180;-46
2023/09/07 11:13:59;;;;;;;5.00;3.90;;;28.50;99.90;;;;;;5091978;28;20637;-45
2023/09/07 11:16:28;;;;;;;4.68;3.30;;;28.70;99.90;;;;;;5092973;28;20255;-44
2023/09/07 11:18:54;;;;;;;5.68;3.78;;;;;;;;;;5092898;28;20168;-48
2023/09/07 11:21:20;;;;;;;8.95;3.60;;;28.80;99.90;;;;;;5092722;28;20192;-45
2023/09/07 11:23:46;;;;;;;5.60;3.28;;;28.60;99.90;;;;;;5092253;28;20232;-45
2023/09/07 11:26:13;;;;;;;6.07;3.60;;;28.80;99.90;;;;;;5091765;28;20196;-45
2023/09/07 11:28:39;;;;;;;6.90;3.72;;;28.80;99.90;;;;;;5092867;28;20571;-45
2023/09/07 11:31:05;;;;;;;10.10;3.55;;;;;;;;;;5093297;28;20169;-45
2023/09/07 11:33:33;;;;;;;5.78;3.75;;;29.10;99.90;;;;;;5093054;28;20173;-45
2023/09/07 11:35:59;;;;;;;5.10;3.53;;;29.10;99.90;;;;;;5093272;28;20527;-44
2023/09/07 11:38:34;;;;;;;5.68;3.45;;;29.30;99.90;;;;;;5093475;28;20164;-44
2023/09/07 11:41:00;;;;;;;7.28;3.55;;;29.30;99.90;;;;;;5093003;28;20168;-44
2023/09/07 11:43:27;;;;;;;5.03;4.05;;;29.30;99.90;;;;;;5093327;28;20212;-45
2023/09/07 11:45:53;;;;;;;7.57;4.00;;;29.50;99.90;;;;;;5093194;28;20581;-49
2023/09/07 11:48:18;;;;;;;6.40;3.83;;;29.40;99.90;;;;;;5092887;28;20163;-48
2023/09/07 11:50:44;;;;;;;8.85;4.05;;;;;;;;;;5092720;28;20165;-47
2023/09/07 11:53:10;;;;;;;4.13;3.72;;;29.40;99.90;;;;;;5093029;28;20253;-49
2023/09/07 11:55:37;;;;;;;5.00;3.97;;;29.50;99.90;;;;;;5092804;28;20165;-48
2023/09/07 11:58:04;;;;;;;5.85;3.60;;;29.40;99.90;;;;;;5092942;28;20297;-48
2023/09/07 12:00:31;;;;;;;4.43;4.05;;;29.30;99.90;;;;;;5092646;28;20192;-49
2023/09/07 12:02:57;;;;;;;5.47;4.00;;;29.50;99.90;;;;;;5092654;28;20211;-50
2023/09/07 12:05:22;;;;;;;5.78;3.75;;;29.50;99.90;;;;;;5092941;28;20157;-49
2023/09/07 12:07:48;;;;;;;6.47;4.10;;;29.60;99.90;;;;;;5092762;28;20173;-48
2023/09/07 12:10:13;;;;;;;4.70;3.95;;;29.60;99.90;;;;;;5092781;28;20532;-49
2023/09/07 12:12:43;;;;;;;6.97;4.45;;;29.60;99.90;;;;;;5091265;28;20553;-47
2023/09/07 12:15:13;;;;;;;6.93;4.10;;;29.40;99.90;;;;;;5092572;28;20224;-45
2023/09/07 12:17:38;;;;;;;4.55;3.90;;;29.50;99.90;;;;;;5092360;28;20172;-45
2023/09/07 12:20:09;;;;;;;5.03;3.90;;;29.80;99.90;;;;;;5092186;28;20161;-45
2023/09/07 12:22:37;;;;;;;8.85;4.15;;;30.00;99.90;;;;;;5092379;28;20297;-44
2023/09/07 12:25:06;;;;;;;5.72;4.15;;;30.00;99.90;;;;;;5092388;28;20173;-46
2023/09/07 12:27:33;;;;;;;6.72;4.03;;;30.20;99.90;;;;;;5092298;28;20172;-45
2023/09/07 12:29:59;;;;;;;5.28;3.38;;;30.10;99.90;;;;;;5092338;28;20179;-45
2023/09/07 12:32:24;;;;;;;6.80;4.15;;;30.20;99.90;;;;;;5092462;28;20638;-45
2023/09/07 12:34:53;;;;;;;5.43;3.80;;;30.20;99.90;;;;;;5092205;28;20710;-44
2023/09/07 12:37:19;;;;;;;5.65;3.63;;;30.30;99.90;;;;;;5092084;28;20184;-45
2023/09/07 12:39:45;;;;;;;4.90;3.92;;;30.20;99.90;;;;;;5092117;28;20527;-47
2023/09/07 12:42:10;;;;;;;4.03;3.67;;;30.40;99.90;;;;;;5091834;28;20244;-45
2023/09/07 12:44:36;;;;;;;7.15;3.88;;;30.30;99.90;;;;;;5091650;28;20227;-44
2023/09/07 12:47:01;;;;;;;4.38;3.65;;;30.20;99.90;;;;;;5091811;28;20165;-47
2023/09/07 12:49:27;;;;;;;4.28;3.78;;;30.00;99.90;;;;;;5091809;28;20161;-45
2023/09/07 12:51:52;;;;;;;4.68;3.65;;;30.10;99.90;;;;;;5092521;28;20168;-46